Hovedside
METAR-TAF:

METAR-TAF

Lufthavner :

Léopold Sédar Senghor internasjonale lufthavn

Dakar, Senegal

breddegrad: 14-44N, lengdegrad: 017-30W, høyde over havet: 27 m

Gjeldene værobservasjon

Denne rapporten ble laget for 1 time og 2 minutter siden, klokken 15:00 UTC
Vind 8 kt fra Vest-nordvest
Temperatur 26°C
Luftfuktighet 74%
Trykk 1015 hPa
Sikt 10 km eller mer
Spredte skyer i en høyde av 1500 ft
Spredte skyer i en høyde av 23000 ft

METAR: GOOY 191500Z 30008KT 9999 SCT015 SCT230 26/21 Q1015

Tid: 16:02 (16:02 UTC)

Varsel

Denne rapporten ble laget for 4 timer og 32 minutter siden, klokken 11:30 UTC
Varsel gyldig fra 19. klokken 12 UTC til 20. klokken 18 UTC
Vind 10 kt fra Nord-nordvest
Sikt 10 km eller mer
Spredte skyer i en høyde av 1200 ft
Midlertidig
fra 20. klokken 02 UTC til 20. klokken 08 UTC
Brutte skyer i en høyde av 800 ft

TAF: GOOY 191130Z 1912/2018 34010KT 9999 SCT012 TEMPO 2002/2008 BKN008

Værobservasjoner og værvarsel for over 4000 flyplasser (METAR- og TAF-rapporter).

Tilgjengelige stasjoner er representert av de røde og gule prikkene på kartet.

Hold musepekeren over prikken for å se navnet på stasjonen.

Klikk så for å se værobservasjoner og -varsler.

For å forandre kartet kan du klikke på den grønne knappen med svart kryss for å zoome inn, på den grønne knappen med strek for å zoome ut, eller på de grønne pilene for å se tilstøtende kart.


METAR-TAF: